sensor_id;sensor_type;location;lat;lon;timestamp;pressure;altitude;pressure_sealevel;temperature;humidity
78123;BME280;67376;44.802;10.332;2023-07-13T00:02:02;100883.81;;;30.33;49.41
78123;BME280;67376;44.802;10.332;2023-07-13T00:04:28;100875.56;;;30.33;49.34
78123;BME280;67376;44.802;10.332;2023-07-13T00:06:53;100874.44;;;30.34;49.41
78123;BME280;67376;44.802;10.332;2023-07-13T00:09:18;100872.81;;;30.33;49.58
78123;BME280;67376;44.802;10.332;2023-07-13T00:11:44;100863.72;;;30.32;48.86
78123;BME280;67376;44.802;10.332;2023-07-13T00:14:10;100858.22;;;30.32;49.51
78123;BME280;67376;44.802;10.332;2023-07-13T00:16:36;100872.81;;;30.33;49.59
78123;BME280;67376;44.802;10.332;2023-07-13T00:19:02;100865.34;;;30.33;48.32
78123;BME280;67376;44.802;10.332;2023-07-13T00:21:27;100849.94;;;30.32;49.52
78123;BME280;67376;44.802;10.332;2023-07-13T00:23:53;100855.16;;;30.34;48.74
78123;BME280;67376;44.802;10.332;2023-07-13T00:26:18;100841.69;;;30.32;49.33
78123;BME280;67376;44.802;10.332;2023-07-13T00:28:43;100831.47;;;30.33;49.38
78123;BME280;67376;44.802;10.332;2023-07-13T00:31:10;100831.47;;;30.33;48.43
78123;BME280;67376;44.802;10.332;2023-07-13T00:33:35;100825.97;;;30.33;49.38
78123;BME280;67376;44.802;10.332;2023-07-13T00:36:01;100830.34;;;30.34;49.27
78123;BME280;67376;44.802;10.332;2023-07-13T00:38:26;100822.09;;;30.34;49.45
78123;BME280;67376;44.802;10.332;2023-07-13T00:40:51;100813.84;;;30.34;48.24
78123;BME280;67376;44.802;10.332;2023-07-13T00:43:18;100807.50;;;30.33;49.49
78123;BME280;67376;44.802;10.332;2023-07-13T00:48:32;100802.00;;;30.33;48.41
78123;BME280;67376;44.802;10.332;2023-07-13T00:50:55;100784.66;;;30.33;49.29
78123;BME280;67376;44.802;10.332;2023-07-13T00:53:21;100771.69;;;30.33;48.98
78123;BME280;67376;44.802;10.332;2023-07-13T00:55:48;100761.47;;;30.34;49.21
78123;BME280;67376;44.802;10.332;2023-07-13T00:58:13;100746.06;;;30.33;48.65
78123;BME280;67376;44.802;10.332;2023-07-13T01:00:39;100741.38;;;30.33;49.41
78123;BME280;67376;44.802;10.332;2023-07-13T01:03:05;100742.19;;;30.34;49.42
78123;BME280;67376;44.802;10.332;2023-07-13T01:05:31;100747.72;;;30.34;48.56
78123;BME280;67376;44.802;10.332;2023-07-13T01:07:57;100758.72;;;30.34;49.22
78123;BME280;67376;44.802;10.332;2023-07-13T01:10:24;100765.06;;;30.34;48.41
78123;BME280;67376;44.802;10.332;2023-07-13T01:12:49;100762.31;;;30.34;49.11
78123;BME280;67376;44.802;10.332;2023-07-13T01:17:58;100770.56;;;30.34;49.09
78123;BME280;67376;44.802;10.332;2023-07-13T01:20:24;100755.16;;;30.33;48.07
78123;BME280;67376;44.802;10.332;2023-07-13T01:22:50;100758.72;;;30.34;48.21
78123;BME280;67376;44.802;10.332;2023-07-13T01:25:15;100760.38;;;30.35;48.73
78123;BME280;67376;44.802;10.332;2023-07-13T01:27:41;100758.72;;;30.34;49.13
78123;BME280;67376;44.802;10.332;2023-07-13T01:30:06;100750.47;;;30.34;49.11
78123;BME280;67376;44.802;10.332;2023-07-13T01:32:32;100745.78;;;30.34;48.96
78123;BME280;67376;44.802;10.332;2023-07-13T01:34:57;100743.00;;;30.34;49.06
78123;BME280;67376;44.802;10.332;2023-07-13T01:37:23;100743.00;;;30.34;49.03
78123;BME280;67376;44.802;10.332;2023-07-13T01:39:49;100743.84;;;30.35;48.93
78123;BME280;67376;44.802;10.332;2023-07-13T01:42:14;100745.78;;;30.34;48.14
78123;BME280;67376;44.802;10.332;2023-07-13T01:44:40;100734.75;;;30.34;48.66
78123;BME280;67376;44.802;10.332;2023-07-13T01:47:05;100733.94;;;30.34;49.08
78123;BME280;67376;44.802;10.332;2023-07-13T01:49:31;100734.75;;;30.34;47.96
78123;BME280;67376;44.802;10.332;2023-07-13T01:51:56;100732.00;;;30.34;49.03
78123;BME280;67376;44.802;10.332;2023-07-13T01:54:21;100732.00;;;30.34;48.93
78123;BME280;67376;44.802;10.332;2023-07-13T01:56:46;100728.44;;;30.34;48.90
78123;BME280;67376;44.802;10.332;2023-07-13T01:59:12;100729.25;;;30.34;49.03
78123;BME280;67376;44.802;10.332;2023-07-13T02:01:37;100718.22;;;30.34;48.24
78123;BME280;67376;44.802;10.332;2023-07-13T02:04:02;100715.47;;;30.34;49.00
78123;BME280;67376;44.802;10.332;2023-07-13T02:06:28;100712.72;;;30.34;48.44
78123;BME280;67376;44.802;10.332;2023-07-13T02:08:53;100716.28;;;30.35;48.65
78123;BME280;67376;44.802;10.332;2023-07-13T02:11:18;100709.97;;;30.34;48.63
78123;BME280;67376;44.802;10.332;2023-07-13T02:13:43;100693.44;;;30.34;48.99
78123;BME280;67376;44.802;10.332;2023-07-13T02:16:09;100711.06;;;30.33;48.99
78123;BME280;67376;44.802;10.332;2023-07-13T02:18:34;100744.97;;;30.34;49.16
78123;BME280;67376;44.802;10.332;2023-07-13T02:20:59;100749.66;;;30.33;48.47
78123;BME280;67376;44.802;10.332;2023-07-13T02:23:25;100743.00;;;30.34;48.82
78123;BME280;67376;44.802;10.332;2023-07-13T02:25:54;100734.75;;;30.34;48.58
78123;BME280;67376;44.802;10.332;2023-07-13T02:28:19;100734.75;;;30.34;48.81
78123;BME280;67376;44.802;10.332;2023-07-13T02:30:44;100739.44;;;30.34;47.77
78123;BME280;67376;44.802;10.332;2023-07-13T02:33:10;100748.53;;;30.34;48.98
78123;BME280;67376;44.802;10.332;2023-07-13T02:35:35;100741.09;;;30.35;48.01
78123;BME280;67376;44.802;10.332;2023-07-13T02:38:00;100724.84;;;30.33;48.78
78123;BME280;67376;44.802;10.332;2023-07-13T02:40:25;100720.97;;;30.34;47.72
78123;BME280;67376;44.802;10.332;2023-07-13T02:42:51;100719.03;;;30.35;47.90
78123;BME280;67376;44.802;10.332;2023-07-13T02:45:16;100728.44;;;30.34;48.89
78123;BME280;67376;44.802;10.332;2023-07-13T02:47:41;100740.25;;;30.34;48.56
78123;BME280;67376;44.802;10.332;2023-07-13T02:50:07;100734.75;;;30.34;48.51
78123;BME280;67376;44.802;10.332;2023-07-13T02:52:32;100734.75;;;30.34;48.25
78123;BME280;67376;44.802;10.332;2023-07-13T02:54:57;100743.00;;;30.34;48.69
78123;BME280;67376;44.802;10.332;2023-07-13T02:57:23;100745.78;;;30.34;48.84
78123;BME280;67376;44.802;10.332;2023-07-13T02:59:48;100741.09;;;30.35;48.11
78123;BME280;67376;44.802;10.332;2023-07-13T03:02:14;100737.50;;;30.34;48.03
78123;BME280;67376;44.802;10.332;2023-07-13T03:04:40;100733.94;;;30.34;47.92
78123;BME280;67376;44.802;10.332;2023-07-13T03:07:06;100746.59;;;30.35;48.72
78123;BME280;67376;44.802;10.332;2023-07-13T03:09:32;100752.09;;;30.35;48.28
78123;BME280;67376;44.802;10.332;2023-07-13T03:11:58;100751.28;;;30.34;48.81
78123;BME280;67376;44.802;10.332;2023-07-13T03:14:23;100748.22;;;30.36;48.76
78123;BME280;67376;44.802;10.332;2023-07-13T03:16:49;100750.47;;;30.34;48.76
78123;BME280;67376;44.802;10.332;2023-07-13T03:19:14;100745.78;;;30.34;48.73
78123;BME280;67376;44.802;10.332;2023-07-13T03:21:39;100749.03;;;30.36;48.71
78123;BME280;67376;44.802;10.332;2023-07-13T03:24:04;100743.00;;;30.34;47.94
78123;BME280;67376;44.802;10.332;2023-07-13T03:26:30;100746.59;;;30.35;47.89
78123;BME280;67376;44.802;10.332;2023-07-13T03:28:55;100754.03;;;30.34;47.90
78123;BME280;67376;44.802;10.332;2023-07-13T03:31:21;100758.72;;;30.34;48.59
78123;BME280;67376;44.802;10.332;2023-07-13T03:33:47;100768.94;;;30.33;48.20
78123;BME280;67376;44.802;10.332;2023-07-13T03:36:14;100767.00;;;30.34;47.69
78123;BME280;67376;44.802;10.332;2023-07-13T03:38:41;100768.94;;;30.33;47.84
78123;BME280;67376;44.802;10.332;2023-07-13T03:41:06;100768.94;;;30.33;48.72
78123;BME280;67376;44.802;10.332;2023-07-13T03:43:31;100773.31;;;30.34;48.36
78123;BME280;67376;44.802;10.332;2023-07-13T03:45:56;100774.13;;;30.35;48.57
78123;BME280;67376;44.802;10.332;2023-07-13T03:48:22;100777.19;;;30.33;48.58
78123;BME280;67376;44.802;10.332;2023-07-13T03:50:47;100788.22;;;30.33;48.61
78123;BME280;67376;44.802;10.332;2023-07-13T03:53:14;100791.78;;;30.34;47.72
78123;BME280;67376;44.802;10.332;2023-07-13T03:55:39;100784.34;;;30.34;48.44
78123;BME280;67376;44.802;10.332;2023-07-13T04:00:48;100768.94;;;30.33;48.04
78123;BME280;67376;44.802;10.332;2023-07-13T04:03:13;100786.28;;;30.34;48.66
78123;BME280;67376;44.802;10.332;2023-07-13T04:05:39;100790.97;;;30.33;48.51
78123;BME280;67376;44.802;10.332;2023-07-13T04:08:05;100789.84;;;30.34;48.64
78123;BME280;67376;44.802;10.332;2023-07-13T04:10:30;100789.03;;;30.34;48.60
78123;BME280;67376;44.802;10.332;2023-07-13T04:12:56;100790.16;;;30.33;48.59
78123;BME280;67376;44.802;10.332;2023-07-13T04:15:21;100802.00;;;30.33;48.03
78123;BME280;67376;44.802;10.332;2023-07-13T04:17:46;100807.50;;;30.33;48.47
78123;BME280;67376;44.802;10.332;2023-07-13T04:20:11;100818.53;;;30.33;47.95
78123;BME280;67376;44.802;10.332;2023-07-13T04:22:37;100822.91;;;30.34;47.98
78123;BME280;67376;44.802;10.332;2023-07-13T04:25:02;100816.59;;;30.34;48.17
78123;BME280;67376;44.802;10.332;2023-07-13T04:27:29;100804.75;;;30.33;48.57
78123;BME280;67376;44.802;10.332;2023-07-13T04:29:55;100801.19;;;30.33;47.83
78123;BME280;67376;44.802;10.332;2023-07-13T04:32:20;100799.22;;;30.33;48.12
78123;BME280;67376;44.802;10.332;2023-07-13T04:34:45;100786.28;;;30.34;48.70
78123;BME280;67376;44.802;10.332;2023-07-13T04:37:10;100785.47;;;30.33;48.40
78123;BME280;67376;44.802;10.332;2023-07-13T04:39:36;100772.81;;;30.32;48.31
78123;BME280;67376;44.802;10.332;2023-07-13T04:42:02;100774.44;;;30.33;47.95
78123;BME280;67376;44.802;10.332;2023-07-13T04:44:27;100776.38;;;30.33;48.63
78123;BME280;67376;44.802;10.332;2023-07-13T04:46:53;100774.44;;;30.33;47.99
78123;BME280;67376;44.802;10.332;2023-07-13T04:49:18;100790.97;;;30.33;48.17
78123;BME280;67376;44.802;10.332;2023-07-13T04:51:43;100805.56;;;30.34;48.32
78123;BME280;67376;44.802;10.332;2023-07-13T04:54:09;100816.88;;;30.32;47.61
78123;BME280;67376;44.802;10.332;2023-07-13T04:56:34;100823.22;;;30.33;47.92
78123;BME280;67376;44.802;10.332;2023-07-13T04:58:59;100829.84;;;30.32;47.99
78123;BME280;67376;44.802;10.332;2023-07-13T05:01:24;100837.00;;;30.33;47.91
78123;BME280;67376;44.802;10.332;2023-07-13T05:03:50;100842.81;;;30.31;47.60
78123;BME280;67376;44.802;10.332;2023-07-13T05:06:15;100838.09;;;30.32;48.00
78123;BME280;67376;44.802;10.332;2023-07-13T05:08:40;100838.09;;;30.32;47.65
78123;BME280;67376;44.802;10.332;2023-07-13T05:11:05;100844.44;;;30.32;47.92
78123;BME280;67376;44.802;10.332;2023-07-13T05:13:32;100858.22;;;30.32;47.94
78123;BME280;67376;44.802;10.332;2023-07-13T05:15:58;100851.88;;;30.32;48.43
78123;BME280;67376;44.802;10.332;2023-07-13T05:18:24;100856.28;;;30.33;48.21
78123;BME280;67376;44.802;10.332;2023-07-13T05:20:56;100855.75;;;30.31;47.97
78123;BME280;67376;44.802;10.332;2023-07-13T05:23:22;100848.31;;;30.31;47.91
78123;BME280;67376;44.802;10.332;2023-07-13T05:25:47;100841.97;;;30.31;48.24
78123;BME280;67376;44.802;10.332;2023-07-13T05:28:12;100841.16;;;30.30;47.37
78123;BME280;67376;44.802;10.332;2023-07-13T05:30:38;100830.13;;;30.30;48.26
78123;BME280;67376;44.802;10.332;2023-07-13T05:33:03;100810.03;;;30.30;48.16
78123;BME280;67376;44.802;10.332;2023-07-13T05:35:28;100805.66;;;30.29;48.30
78123;BME280;67376;44.802;10.332;2023-07-13T05:37:54;100794.31;;;30.30;48.48
78123;BME280;67376;44.802;10.332;2023-07-13T05:40:19;100804.53;;;30.30;48.06
78123;BME280;67376;44.802;10.332;2023-07-13T05:42:44;100808.09;;;30.30;48.46
78123;BME280;67376;44.802;10.332;2023-07-13T05:45:09;100815.25;;;30.31;48.37
78123;BME280;67376;44.802;10.332;2023-07-13T05:47:34;100817.19;;;30.31;48.36
78123;BME280;67376;44.802;10.332;2023-07-13T05:50:00;100812.50;;;30.31;47.75
78123;BME280;67376;44.802;10.332;2023-07-13T05:52:25;100800.66;;;30.31;47.61
78123;BME280;67376;44.802;10.332;2023-07-13T05:54:51;100810.84;;;30.30;47.62
78123;BME280;67376;44.802;10.332;2023-07-13T05:57:16;100823.50;;;30.31;48.42
78123;BME280;67376;44.802;10.332;2023-07-13T05:59:41;100820.75;;;30.31;47.84
78123;BME280;67376;44.802;10.332;2023-07-13T06:02:08;100827.09;;;30.32;47.83
78123;BME280;67376;44.802;10.332;2023-07-13T06:04:33;100820.75;;;30.31;47.50
78123;BME280;67376;44.802;10.332;2023-07-13T06:06:59;100813.63;;;30.30;47.32
78123;BME280;67376;44.802;10.332;2023-07-13T06:09:25;100830.66;;;30.32;48.35
78123;BME280;67376;44.802;10.332;2023-07-13T06:11:50;100834.53;;;30.31;47.50
78123;BME280;67376;44.802;10.332;2023-07-13T06:14:15;100819.13;;;30.30;48.02
78123;BME280;67376;44.802;10.332;2023-07-13T06:16:41;100820.75;;;30.31;47.52
78123;BME280;67376;44.802;10.332;2023-07-13T06:19:06;100826.56;;;30.30;47.29
78123;BME280;67376;44.802;10.332;2023-07-13T06:21:31;100832.09;;;30.30;47.66
78123;BME280;67376;44.802;10.332;2023-07-13T06:23:57;100830.97;;;30.31;48.24
78123;BME280;67376;44.802;10.332;2023-07-13T06:26:22;100841.16;;;30.30;47.98
78123;BME280;67376;44.802;10.332;2023-07-13T06:28:47;100842.28;;;30.29;47.94
78123;BME280;67376;44.802;10.332;2023-07-13T06:31:13;100825.75;;;30.29;47.72
78123;BME280;67376;44.802;10.332;2023-07-13T06:33:39;100799.84;;;30.30;48.33
78123;BME280;67376;44.802;10.332;2023-07-13T06:36:05;100767.09;;;30.29;47.66
78123;BME280;67376;44.802;10.332;2023-07-13T06:38:31;100763.22;;;30.30;47.50
78123;BME280;67376;44.802;10.332;2023-07-13T06:40:57;100780.56;;;30.30;47.87
78123;BME280;67376;44.802;10.332;2023-07-13T06:43:22;100811.97;;;30.29;47.38
78123;BME280;67376;44.802;10.332;2023-07-13T06:45:49;100855.75;;;30.31;47.73
78123;BME280;67376;44.802;10.332;2023-07-13T06:48:16;100875.03;;;30.31;47.58
78123;BME280;67376;44.802;10.332;2023-07-13T06:50:42;100903.41;;;30.31;48.32
78123;BME280;67376;44.802;10.332;2023-07-13T06:53:07;100909.72;;;30.32;48.31
78123;BME280;67376;44.802;10.332;2023-07-13T06:55:32;100902.88;;;30.29;47.03
78123;BME280;67376;44.802;10.332;2023-07-13T06:57:58;100879.22;;;30.28;47.93
78123;BME280;67376;44.802;10.332;2023-07-13T07:00:23;100838.19;;;30.27;47.50
78123;BME280;67376;44.802;10.332;2023-07-13T07:02:48;100824.41;;;30.27;48.18
78123;BME280;67376;44.802;10.332;2023-07-13T07:05:14;100819.72;;;30.27;48.19
78123;BME280;67376;44.802;10.332;2023-07-13T07:07:39;100815.84;;;30.28;48.19
78123;BME280;67376;44.802;10.332;2023-07-13T07:10:04;100809.22;;;30.29;48.25
78123;BME280;67376;44.802;10.332;2023-07-13T07:12:30;100817.78;;;30.28;47.22
78123;BME280;67376;44.802;10.332;2023-07-13T07:14:55;100837.59;;;30.30;48.24
78123;BME280;67376;44.802;10.332;2023-07-13T07:17:20;100836.78;;;30.29;47.62
78123;BME280;67376;44.802;10.332;2023-07-13T07:19:45;100828.50;;;30.29;48.14
78123;BME280;67376;44.802;10.332;2023-07-13T07:22:11;100835.94;;;30.29;48.04
78123;BME280;67376;44.802;10.332;2023-07-13T07:24:36;100856.88;;;30.30;48.23
78123;BME280;67376;44.802;10.332;2023-07-13T07:27:02;100865.13;;;30.30;48.20
78123;BME280;67376;44.802;10.332;2023-07-13T07:29:27;100869.81;;;30.29;48.12
78123;BME280;67376;44.802;10.332;2023-07-13T07:31:52;100859.94;;;30.28;47.33
78123;BME280;67376;44.802;10.332;2023-07-13T07:34:18;100851.66;;;30.28;47.80
78123;BME280;67376;44.802;10.332;2023-07-13T07:36:43;100854.41;;;30.28;47.80
78123;BME280;67376;44.802;10.332;2023-07-13T07:39:08;100853.31;;;30.29;47.32
78123;BME280;67376;44.802;10.332;2023-07-13T07:41:34;100832.38;;;30.28;47.59
78123;BME280;67376;44.802;10.332;2023-07-13T07:43:59;100799.63;;;30.27;47.18
78123;BME280;67376;44.802;10.332;2023-07-13T07:46:24;100779.22;;;30.28;48.08
78123;BME280;67376;44.802;10.332;2023-07-13T07:48:49;100799.31;;;30.28;47.44
78123;BME280;67376;44.802;10.332;2023-07-13T07:51:14;100824.41;;;30.27;47.33
78123;BME280;67376;44.802;10.332;2023-07-13T07:53:40;100838.72;;;30.29;48.07
78123;BME280;67376;44.802;10.332;2023-07-13T07:56:05;100846.16;;;30.28;48.00
78123;BME280;67376;44.802;10.332;2023-07-13T07:58:30;100828.81;;;30.28;47.64
78123;BME280;67376;44.802;10.332;2023-07-13T08:01:01;100822.47;;;30.27;48.06
78123;BME280;67376;44.802;10.332;2023-07-13T08:03:27;100828.81;;;30.28;47.51
78123;BME280;67376;44.802;10.332;2023-07-13T08:05:52;100841.75;;;30.27;47.96
78123;BME280;67376;44.802;10.332;2023-07-13T08:08:18;100850.03;;;30.27;48.11
78123;BME280;67376;44.802;10.332;2023-07-13T08:10:43;100839.81;;;30.28;47.93
78123;BME280;67376;44.802;10.332;2023-07-13T08:13:08;100815.03;;;30.28;48.10
78123;BME280;67376;44.802;10.332;2023-07-13T08:15:33;100780.66;;;30.25;47.47
78123;BME280;67376;44.802;10.332;2023-07-13T08:17:59;100771.56;;;30.25;47.51
78123;BME280;67376;44.802;10.332;2023-07-13T08:20:24;100841.25;;;30.25;48.15
78123;BME280;67376;44.802;10.332;2023-07-13T08:22:49;100924.41;;;30.27;47.65
78123;BME280;67376;44.802;10.332;2023-07-13T08:25:14;100961.84;;;30.28;47.68
78123;BME280;67376;44.802;10.332;2023-07-13T08:27:40;100951.13;;;30.27;48.05
78123;BME280;67376;44.802;10.332;2023-07-13T08:30:05;100900.72;;;30.26;47.60
78123;BME280;67376;44.802;10.332;2023-07-13T08:32:30;100888.06;;;30.25;47.81
78123;BME280;67376;44.802;10.332;2023-07-13T08:34:56;100870.72;;;30.25;47.38
78123;BME280;67376;44.802;10.332;2023-07-13T08:37:21;100844.00;;;30.25;47.45
78123;BME280;67376;44.802;10.332;2023-07-13T08:39:46;100863.28;;;30.25;47.99
78123;BME280;67376;44.802;10.332;2023-07-13T08:42:14;100903.47;;;30.26;47.56
78123;BME280;67376;44.802;10.332;2023-07-13T08:47:08;100837.66;;;30.25;46.97
78123;BME280;67376;44.802;10.332;2023-07-13T08:49:35;100851.44;;;30.25;47.58
78123;BME280;67376;44.802;10.332;2023-07-13T08:52:02;100900.22;;;30.24;48.02
78123;BME280;67376;44.802;10.332;2023-07-13T08:54:30;100918.69;;;30.23;47.61
78123;BME280;67376;44.802;10.332;2023-07-13T08:56:57;100918.38;;;30.25;47.85
78123;BME280;67376;44.802;10.332;2023-07-13T08:59:26;100915.63;;;30.25;48.08
78123;BME280;67376;44.802;10.332;2023-07-13T09:04:18;100904.59;;;30.25;47.45
78123;BME280;67376;44.802;10.332;2023-07-13T09:12:23;100945.09;;;30.25;47.82
78123;BME280;67376;44.802;10.332;2023-07-13T09:14:48;100955.31;;;30.24;47.33
78123;BME280;67376;44.802;10.332;2023-07-13T09:17:19;100959.19;;;30.23;47.61
78123;BME280;67376;44.802;10.332;2023-07-13T09:19:46;100971.00;;;30.23;48.12
78123;BME280;67376;44.802;10.332;2023-07-13T09:22:18;100971.00;;;30.23;48.09
78123;BME280;67376;44.802;10.332;2023-07-13T09:27:33;100966.63;;;30.22;46.92
78123;BME280;67376;44.802;10.332;2023-07-13T09:30:11;100950.09;;;30.22;47.58
78123;BME280;67376;44.802;10.332;2023-07-13T09:32:43;100952.03;;;30.22;47.09
78123;BME280;67376;44.802;10.332;2023-07-13T09:35:14;100950.91;;;30.23;48.11
78123;BME280;67376;44.802;10.332;2023-07-13T09:37:40;100952.84;;;30.22;48.12
78123;BME280;67376;44.802;10.332;2023-07-13T09:40:11;100954.78;;;30.22;48.11
78123;BME280;67376;44.802;10.332;2023-07-13T09:42:40;100959.47;;;30.21;48.05
78123;BME280;67376;44.802;10.332;2023-07-13T09:45:05;100951.19;;;30.21;48.09
78123;BME280;67376;44.802;10.332;2023-07-13T09:47:38;100947.63;;;30.21;48.02
78123;BME280;67376;44.802;10.332;2023-07-13T09:50:14;100939.38;;;30.21;48.05
78123;BME280;67376;44.802;10.332;2023-07-13T09:55:15;100947.63;;;30.21;48.20
78123;BME280;67376;44.802;10.332;2023-07-13T09:57:47;100929.47;;;30.20;48.00
78123;BME280;67376;44.802;10.332;2023-07-13T10:00:19;100929.47;;;30.20;48.02
78123;BME280;67376;44.802;10.332;2023-07-13T10:02:45;100923.97;;;30.20;48.20
78123;BME280;67376;44.802;10.332;2023-07-13T10:05:11;100929.47;;;30.20;47.84
78123;BME280;67376;44.802;10.332;2023-07-13T10:07:39;100916.81;;;30.19;48.11
78123;BME280;67376;44.802;10.332;2023-07-13T10:10:12;100919.25;;;30.20;48.23
78123;BME280;67376;44.802;10.332;2023-07-13T10:12:38;100922.03;;;30.20;46.86
78123;BME280;67376;44.802;10.332;2023-07-13T10:15:04;100930.28;;;30.20;47.29
78123;BME280;67376;44.802;10.332;2023-07-13T10:17:34;100934.97;;;30.20;48.01
78123;BME280;67376;44.802;10.332;2023-07-13T10:20:01;100918.44;;;30.20;48.13
78123;BME280;67376;44.802;10.332;2023-07-13T10:24:55;100922.03;;;30.20;47.79
78123;BME280;67376;44.802;10.332;2023-07-13T10:27:23;100913.75;;;30.20;47.49
78123;BME280;67376;44.802;10.332;2023-07-13T10:29:52;100926.72;;;30.20;47.15
78123;BME280;67376;44.802;10.332;2023-07-13T10:32:19;100920.09;;;30.21;47.54
78123;BME280;67376;44.802;10.332;2023-07-13T10:34:46;100912.94;;;30.20;48.05
78123;BME280;67376;44.802;10.332;2023-07-13T10:37:17;100900.28;;;30.19;48.07
78123;BME280;67376;44.802;10.332;2023-07-13T10:39:43;100901.91;;;30.20;48.11
78123;BME280;67376;44.802;10.332;2023-07-13T10:42:09;100896.41;;;30.20;47.97
78123;BME280;67376;44.802;10.332;2023-07-13T10:44:38;100885.69;;;30.18;48.02
78123;BME280;67376;44.802;10.332;2023-07-13T10:47:06;100881.81;;;30.19;47.66
78123;BME280;67376;44.802;10.332;2023-07-13T10:49:33;100880.19;;;30.18;46.92
78123;BME280;67376;44.802;10.332;2023-07-13T10:52:00;100878.25;;;30.19;47.33
78123;BME280;67376;44.802;10.332;2023-07-13T10:59:37;100861.72;;;30.19;47.04
78123;BME280;67376;44.802;10.332;2023-07-13T11:04:29;100853.75;;;30.17;47.40
78123;BME280;67376;44.802;10.332;2023-07-13T11:06:58;100854.88;;;30.16;47.92
78123;BME280;67376;44.802;10.332;2023-07-13T11:09:35;100853.75;;;30.17;47.55
78123;BME280;67376;44.802;10.332;2023-07-13T11:14:43;100849.06;;;30.18;47.43
78123;BME280;67376;44.802;10.332;2023-07-13T11:19:50;100822.34;;;30.18;46.86
78123;BME280;67376;44.802;10.332;2023-07-13T11:22:17;100819.06;;;30.16;46.86
78123;BME280;67376;44.802;10.332;2023-07-13T11:24:56;100821.53;;;30.18;47.08
78123;BME280;67376;44.802;10.332;2023-07-13T11:29:49;100813.56;;;30.16;47.86
78123;BME280;67376;44.802;10.332;2023-07-13T11:32:24;100825.41;;;30.17;47.11
78123;BME280;67376;44.802;10.332;2023-07-13T11:34:51;100821.81;;;30.16;47.58
78123;BME280;67376;44.802;10.332;2023-07-13T11:37:18;100828.16;;;30.17;47.28
78123;BME280;67376;44.802;10.332;2023-07-13T11:39:44;100822.34;;;30.18;46.95
78123;BME280;67376;44.802;10.332;2023-07-13T11:42:14;100810.00;;;30.16;47.14
78123;BME280;67376;44.802;10.332;2023-07-13T11:44:45;100810.00;;;30.16;47.64
78123;BME280;67376;44.802;10.332;2023-07-13T11:47:14;100808.06;;;30.16;46.75
78123;BME280;67376;44.802;10.332;2023-07-13T11:49:43;100810.81;;;30.16;47.68
78123;BME280;67376;44.802;10.332;2023-07-13T11:52:16;100810.00;;;30.16;47.84
78123;BME280;67376;44.802;10.332;2023-07-13T11:54:54;100807.22;;;30.16;47.72
78123;BME280;67376;44.802;10.332;2023-07-13T11:57:23;100805.31;;;30.16;47.09
78123;BME280;67376;44.802;10.332;2023-07-13T11:59:49;100796.22;;;30.16;47.29
78123;BME280;67376;44.802;10.332;2023-07-13T12:02:17;100792.66;;;30.15;46.97
78123;BME280;67376;44.802;10.332;2023-07-13T12:04:43;100789.38;;;30.13;46.99
78123;BME280;67376;44.802;10.332;2023-07-13T12:07:16;100787.44;;;30.14;47.91
78123;BME280;67376;44.802;10.332;2023-07-13T12:09:42;100781.63;;;30.15;46.83
78123;BME280;67376;44.802;10.332;2023-07-13T12:12:14;100768.97;;;30.14;46.70
78123;BME280;67376;44.802;10.332;2023-07-13T12:14:41;100773.66;;;30.14;46.86
78123;BME280;67376;44.802;10.332;2023-07-13T12:19:39;100765.09;;;30.15;47.36
78123;BME280;67376;44.802;10.332;2023-07-13T12:22:08;100771.72;;;30.14;46.90
78123;BME280;67376;44.802;10.332;2023-07-13T12:24:35;100766.22;;;30.14;46.87
78123;BME280;67376;44.802;10.332;2023-07-13T12:27:02;100764.28;;;30.15;47.02
78123;BME280;67376;44.802;10.332;2023-07-13T12:29:28;100761.84;;;30.13;48.04
78123;BME280;67376;44.802;10.332;2023-07-13T12:31:54;100756.31;;;30.13;47.95
78123;BME280;67376;44.802;10.332;2023-07-13T12:34:21;100754.38;;;30.14;47.11
78123;BME280;67376;44.802;10.332;2023-07-13T12:36:51;100758.78;;;30.15;46.72
78123;BME280;67376;44.802;10.332;2023-07-13T12:41:43;100746.13;;;30.14;47.77
78123;BME280;67376;44.802;10.332;2023-07-13T12:44:29;100737.34;;;30.12;46.88
78123;BME280;67376;44.802;10.332;2023-07-13T12:47:06;100735.41;;;30.12;47.48
78123;BME280;67376;44.802;10.332;2023-07-13T12:49:39;100736.22;;;30.13;47.44
78123;BME280;67376;44.802;10.332;2023-07-13T12:52:10;100756.31;;;30.13;46.91
78123;BME280;67376;44.802;10.332;2023-07-13T12:54:39;100759.06;;;30.13;46.73
78123;BME280;67376;44.802;10.332;2023-07-13T12:57:05;100761.84;;;30.13;46.86
78123;BME280;67376;44.802;10.332;2023-07-13T12:59:34;100745.31;;;30.13;46.90
78123;BME280;67376;44.802;10.332;2023-07-13T13:02:01;100753.56;;;30.13;47.75
78123;BME280;67376;44.802;10.332;2023-07-13T13:04:27;100759.06;;;30.13;47.34
78123;BME280;67376;44.802;10.332;2023-07-13T13:07:03;100761.00;;;30.13;47.39
78123;BME280;67376;44.802;10.332;2023-07-13T13:09:28;100755.50;;;30.13;46.78
78123;BME280;67376;44.802;10.332;2023-07-13T13:11:54;100753.56;;;30.13;47.11
78123;BME280;67376;44.802;10.332;2023-07-13T13:14:19;100748.38;;;30.12;47.63
78123;BME280;67376;44.802;10.332;2023-07-13T13:16:48;100737.34;;;30.12;47.41
78123;BME280;67376;44.802;10.332;2023-07-13T13:19:18;100736.53;;;30.11;47.82
78123;BME280;67376;44.802;10.332;2023-07-13T13:21:45;100731.84;;;30.12;47.82
78123;BME280;67376;44.802;10.332;2023-07-13T13:24:12;100721.94;;;30.11;47.34